WXM80 ListenWXM80 Stop

You find our weather info also at:

UK Metoffice

WeatherCloud

Weather Underground

Northeastern Weather Network

AWEKAS

Citizen Weather Observer Program (CWOP)

HAMweather, WeatherForYou, PWS Weather


Weather Underground History page Text

Daily Summary for March 9, 2017 Units:  English    Metric   Both
« Previous Day
Next Day »
Daily Weekly Monthly Yearly Custom
  High: Low: Average:
Temperature: 59.1 °F 46.3 °F 53.2 °F
Dew Point: 31.5 °F 21.1 °F 26.9 °F
Humidity: 50 % 24 % 37 %
Wind Speed: 13.5 mph 0.0 mph 5.9 mph
Wind Gust: 30.0 mph - -
Wind:- - West
Pressure: 29.97 in 29.86 in -
Precipitation: 0.00 in    
Historical Graphs
 
 
Tabular Data for March 9, 2017
Time Temperature Dew Point Pressure Wind Wind Speed Wind Gust Humidity Rainfall Rate (Hourly)
00:03 52.5 °F 26.9 °F 29.86 in SW 5.9 mph 11.5 mph 37 % 0.00 in
00:08 53.0 °F 26.0 °F 29.86 in SW 6.5 mph 13.8 mph 35 % 0.00 in
00:13 53.4 °F 25.7 °F 29.86 in South 6.9 mph 12.7 mph 34 % 0.00 in
00:18 53.6 °F 27.9 °F 29.86 in SSW 5.1 mph 10.4 mph 37 % 0.00 in
00:23 53.4 °F 28.4 °F 29.86 in SW 8.1 mph 15.0 mph 38 % 0.00 in
00:28 53.3 °F 27.7 °F 29.86 in West 5.2 mph 10.0 mph 37 % 0.00 in
00:33 53.6 °F 25.2 °F 29.86 in WSW 10.3 mph 20.7 mph 33 % 0.00 in
00:38 54.3 °F 25.8 °F 29.86 in SW 11.2 mph 19.6 mph 33 % 0.00 in
00:44 54.9 °F 26.3 °F 29.86 in West 9.3 mph 12.7 mph 33 % 0.00 in
00:49 55.0 °F 26.4 °F 29.87 in WSW 10.1 mph 21.0 mph 33 % 0.00 in
00:54 55.1 °F 26.5 °F 29.86 in West 8.2 mph 15.0 mph 33 % 0.00 in
00:59 55.0 °F 26.4 °F 29.86 in West 12.5 mph 23.0 mph 33 % 0.00 in
01:04 55.0 °F 26.4 °F 29.87 in WSW 7.4 mph 12.7 mph 33 % 0.00 in
01:09 54.8 °F 28.3 °F 29.87 in South 4.3 mph 6.9 mph 36 % 0.00 in
01:14 54.2 °F 29.1 °F 29.87 in SW 5.1 mph 6.9 mph 38 % 0.00 in
01:19 53.5 °F 29.7 °F 29.88 in SSW 4.2 mph 6.9 mph 40 % 0.00 in
01:24 52.8 °F 30.3 °F 29.88 in SSW 2.8 mph 4.6 mph 42 % 0.00 in
01:29 52.1 °F 29.7 °F 29.88 in SSW 1.8 mph 3.5 mph 42 % 0.00 in
01:34 51.5 °F 28.6 °F 29.88 in WSW 2.7 mph 11.5 mph 41 % 0.00 in
01:39 51.4 °F 26.0 °F 29.88 in West 6.4 mph 11.5 mph 37 % 0.00 in
01:45 52.1 °F 25.9 °F 29.88 in West 10.9 mph 23.0 mph 36 % 0.00 in
01:50 52.8 °F 26.6 °F 29.88 in West 7.5 mph 16.1 mph 36 % 0.00 in
01:55 53.1 °F 26.8 °F 29.88 in West 9.2 mph 13.8 mph 36 % 0.00 in
02:00 53.3 °F 26.3 °F 29.88 in WSW 10.1 mph 17.0 mph 35 % 0.00 in
02:05 53.6 °F 26.6 °F 29.88 in West 5.8 mph 21.9 mph 35 % 0.00 in
02:10 53.7 °F 26.0 °F 29.88 in NW 12.1 mph 19.6 mph 34 % 0.00 in
02:15 53.9 °F 26.1 °F 29.89 in West 10.0 mph 17.3 mph 34 % 0.00 in
02:20 53.8 °F 26.8 °F 29.88 in WSW 9.6 mph 13.8 mph 35 % 0.00 in
02:25 53.7 °F 26.7 °F 29.88 in WSW 8.3 mph 16.1 mph 35 % 0.00 in
02:30 53.5 °F 27.2 °F 29.89 in WSW 4.7 mph 11.5 mph 36 % 0.00 in
02:35 53.2 °F 26.9 °F 29.88 in WSW 5.3 mph 9.2 mph 36 % 0.00 in
02:40 53.1 °F 26.8 °F 29.88 in WSW 8.1 mph 11.5 mph 36 % 0.00 in
02:45 53.0 °F 25.3 °F 29.88 in West 8.2 mph 10.4 mph 34 % 0.00 in
02:51 53.0 °F 25.3 °F 29.88 in NW 7.9 mph 13.8 mph 34 % 0.00 in
02:56 53.2 °F 25.5 °F 29.88 in West 7.9 mph 11.5 mph 34 % 0.00 in
03:01 53.3 °F 26.3 °F 29.88 in SW 6.1 mph 11.5 mph 35 % 0.00 in
03:06 53.3 °F 26.3 °F 29.88 in West 6.1 mph 15.0 mph 35 % 0.00 in
03:11 53.2 °F 26.2 °F 29.88 in WSW 4.0 mph 13.8 mph 35 % 0.00 in
03:16 53.1 °F 26.1 °F 29.87 in WSW 3.9 mph 11.5 mph 35 % 0.00 in
03:21 53.1 °F 25.4 °F 29.87 in SSW 5.6 mph 10.0 mph 34 % 0.00 in
03:26 53.0 °F 25.3 °F 29.87 in SW 7.3 mph 12.7 mph 34 % 0.00 in
03:31 53.0 °F 24.6 °F 29.87 in SW 8.2 mph 11.0 mph 33 % 0.00 in
03:33 53.0 °F 24.6 °F 29.87 in SSW 7.7 mph 12.7 mph 33 % 0.00 in
03:37 53.0 °F 25.3 °F 29.87 in SSW 5.8 mph 15.0 mph 34 % 0.00 in
03:42 53.0 °F 25.3 °F 29.87 in SW 8.4 mph 15.0 mph 34 % 0.00 in
03:47 53.0 °F 25.3 °F 29.88 in SW 5.5 mph 10.4 mph 34 % 0.00 in
03:52 53.0 °F 25.3 °F 29.88 in WSW 7.3 mph 9.2 mph 34 % 0.00 in
03:57 53.0 °F 25.3 °F 29.88 in SSW 6.8 mph 11.5 mph 34 % 0.00 in
04:03 53.0 °F 26.0 °F 29.88 in WSW 11.4 mph 18.4 mph 35 % 0.00 in
04:08 53.0 °F 26.0 °F 29.88 in SW 10.1 mph 19.6 mph 35 % 0.00 in
04:13 53.0 °F 26.0 °F 29.88 in WSW 6.7 mph 16.0 mph 35 % 0.00 in
04:18 52.9 °F 26.0 °F 29.88 in SW 4.3 mph 16.1 mph 35 % 0.00 in
04:23 52.8 °F 26.6 °F 29.88 in WSW 9.0 mph 30.0 mph 36 % 0.00 in
04:28 52.7 °F 26.5 °F 29.88 in WSW 9.0 mph 20.0 mph 36 % 0.00 in
04:33 52.7 °F 26.5 °F 29.89 in WSW 10.0 mph 20.0 mph 36 % 0.00 in
04:38 52.7 °F 26.5 °F 29.89 in WSW 6.0 mph 20.0 mph 36 % 0.00 in
04:43 52.6 °F 26.4 °F 29.89 in WSW 8.0 mph 17.0 mph 36 % 0.00 in
04:48 52.6 °F 26.4 °F 29.89 in WSW 7.0 mph 16.0 mph 36 % 0.00 in
04:53 52.6 °F 25.7 °F 29.89 in WSW 8.0 mph 20.0 mph 35 % 0.00 in
04:58 52.6 °F 25.7 °F 29.89 in WSW 10.3 mph 20.7 mph 35 % 0.00 in
05:03 52.7 °F 25.8 °F 29.89 in WSW 10.0 mph 21.0 mph 35 % 0.00 in
05:08 52.7 °F 25.7 °F 29.89 in WSW 9.0 mph 21.0 mph 35 % 0.00 in
05:13 52.6 °F 25.7 °F 29.89 in West 8.0 mph 16.0 mph 35 % 0.00 in
05:18 52.5 °F 26.3 °F 29.89 in West 7.9 mph 11.5 mph 36 % 0.00 in
05:23 52.3 °F 26.1 °F 29.89 in WSW 6.0 mph 18.0 mph 36 % 0.00 in
05:28 52.1 °F 25.9 °F 29.89 in West 6.8 mph 18.4 mph 36 % 0.00 in
05:33 52.1 °F 25.9 °F 29.89 in WSW 10.0 mph 18.0 mph 36 % 0.00 in
05:38 52.1 °F 25.9 °F 29.89 in South 4.9 mph 12.7 mph 36 % 0.00 in
05:43 52.0 °F 26.5 °F 29.89 in SW 11.2 mph 18.4 mph 37 % 0.00 in
05:48 51.8 °F 26.3 °F 29.89 in WNW 7.0 mph 12.7 mph 37 % 0.00 in
05:49 51.8 °F 25.7 °F 29.89 in SW 5.9 mph 12.7 mph 36 % 0.00 in
05:54 51.8 °F 25.7 °F 29.89 in SW 7.1 mph 12.7 mph 36 % 0.00 in
05:59 51.8 °F 25.7 °F 29.90 in West 10.3 mph 11.5 mph 36 % 0.00 in
06:04 51.8 °F 25.7 °F 29.90 in SW 5.6 mph 13.8 mph 36 % 0.00 in
06:09 51.9 °F 25.8 °F 29.90 in WSW 3.6 mph 17.3 mph 36 % 0.00 in
06:14 51.8 °F 25.7 °F 29.89 in WSW 6.9 mph 17.3 mph 36 % 0.00 in
06:19 51.6 °F 25.5 °F 29.89 in WNW 12.8 mph 18.4 mph 36 % 0.00 in
06:24 51.6 °F 24.8 °F 29.90 in WSW 11.7 mph 21.9 mph 35 % 0.00 in
06:29 51.7 °F 24.9 °F 29.90 in WSW 10.7 mph 17.3 mph 35 % 0.00 in
06:34 51.7 °F 25.6 °F 29.90 in West 8.0 mph 19.6 mph 36 % 0.00 in
06:39 51.7 °F 24.9 °F 29.90 in SW 9.3 mph 15.0 mph 35 % 0.00 in
06:44 51.8 °F 25.0 °F 29.90 in West 6.9 mph 15.0 mph 35 % 0.00 in
06:50 51.9 °F 25.1 °F 29.90 in SW 9.7 mph 17.3 mph 35 % 0.00 in
06:55 52.0 °F 25.2 °F 29.91 in WSW 9.3 mph 18.4 mph 35 % 0.00 in
07:00 52.1 °F 25.3 °F 29.90 in West 9.2 mph 16.1 mph 35 % 0.00 in
07:05 52.3 °F 24.7 °F 29.90 in WNW 11.4 mph 19.0 mph 34 % 0.00 in
07:10 52.4 °F 24.8 °F 29.91 in SW 6.5 mph 11.5 mph 34 % 0.00 in
07:15 52.5 °F 24.9 °F 29.91 in SW 7.2 mph 13.8 mph 34 % 0.00 in
07:20 52.6 °F 25.0 °F 29.91 in SW 13.5 mph 15.0 mph 34 % 0.00 in
07:25 52.8 °F 25.2 °F 29.91 in WSW 5.6 mph 19.6 mph 34 % 0.00 in
07:30 52.9 °F 24.5 °F 29.91 in WSW 5.7 mph 12.7 mph 33 % 0.00 in
07:35 53.1 °F 24.7 °F 29.91 in SW 7.9 mph 16.1 mph 33 % 0.00 in
07:36 53.1 °F 24.7 °F 29.91 in West 10.4 mph 16.1 mph 33 % 0.00 in
07:41 53.2 °F 24.8 °F 29.91 in SW 8.0 mph 17.3 mph 33 % 0.00 in
07:46 53.3 °F 24.2 °F 29.91 in SW 11.8 mph 21.0 mph 32 % 0.00 in
07:51 53.5 °F 24.3 °F 29.91 in WSW 11.5 mph 19.6 mph 32 % 0.00 in
07:56 53.6 °F 25.2 °F 29.91 in WNW 6.6 mph 12.7 mph 33 % 0.00 in
08:01 53.7 °F 25.2 °F 29.91 in WSW 10.4 mph 17.3 mph 33 % 0.00 in
08:06 53.8 °F 24.6 °F 29.91 in WSW 11.8 mph 20.7 mph 32 % 0.00 in
08:11 53.8 °F 24.6 °F 29.91 in WSW 10.4 mph 22.0 mph 32 % 0.00 in
08:16 54.0 °F 25.5 °F 29.92 in SW 7.1 mph 17.0 mph 33 % 0.00 in
08:21 54.1 °F 24.9 °F 29.93 in West 12.2 mph 21.9 mph 32 % 0.00 in
08:26 54.1 °F 24.9 °F 29.93 in SW 8.6 mph 13.0 mph 32 % 0.00 in
08:32 54.2 °F 23.4 °F 29.93 in NW 10.7 mph 20.7 mph 30 % 0.00 in
08:37 54.3 °F 24.3 °F 29.93 in WNW 6.2 mph 18.4 mph 31 % 0.00 in
08:42 54.3 °F 24.3 °F 29.92 in WSW 9.1 mph 19.6 mph 31 % 0.00 in
08:47 54.4 °F 24.4 °F 29.92 in West 11.2 mph 19.6 mph 31 % 0.00 in
08:52 54.4 °F 24.4 °F 29.92 in NW 12.2 mph 24.2 mph 31 % 0.00 in
08:57 54.5 °F 24.4 °F 29.92 in WSW 9.8 mph 17.3 mph 31 % 0.00 in
09:02 54.7 °F 24.6 °F 29.92 in WSW 8.3 mph 16.1 mph 31 % 0.00 in
09:07 54.8 °F 22.3 °F 29.93 in SW 13.1 mph 21.0 mph 28 % 0.00 in
09:12 54.9 °F 22.4 °F 29.93 in SW 8.8 mph 20.7 mph 28 % 0.00 in
09:17 55.1 °F 22.5 °F 29.93 in West 9.5 mph 20.0 mph 28 % 0.00 in
09:22 55.3 °F 22.7 °F 29.92 in West 4.6 mph 11.5 mph 28 % 0.00 in
09:27 55.7 °F 22.2 °F 29.92 in WNW 10.3 mph 15.0 mph 27 % 0.00 in
09:32 55.9 °F 23.2 °F 29.93 in WNW 10.2 mph 19.6 mph 28 % 0.00 in
09:37 56.0 °F 22.4 °F 29.92 in SW 8.9 mph 15.0 mph 27 % 0.00 in
09:42 56.1 °F 22.5 °F 29.92 in WNW 7.9 mph 15.0 mph 27 % 0.00 in
09:48 56.0 °F 21.6 °F 29.92 in West 8.1 mph 17.0 mph 26 % 0.00 in
09:53 56.1 °F 23.4 °F 29.92 in SW 6.2 mph 11.5 mph 28 % 0.00 in
09:58 56.2 °F 21.7 °F 29.92 in West 8.4 mph 17.3 mph 26 % 0.00 in
10:03 56.3 °F 22.7 °F 29.92 in West 9.2 mph 16.1 mph 27 % 0.00 in
10:08 56.4 °F 22.8 °F 29.91 in WSW 7.0 mph 17.0 mph 27 % 0.00 in
10:13 56.6 °F 22.1 °F 29.92 in WSW 9.0 mph 20.0 mph 26 % 0.00 in
10:18 56.9 °F 21.4 °F 29.92 in West 10.0 mph 21.0 mph 25 % 0.00 in
10:23 57.1 °F 21.6 °F 29.92 in West 9.0 mph 18.0 mph 25 % 0.00 in
10:28 57.4 °F 21.8 °F 29.92 in West 9.0 mph 14.0 mph 25 % 0.00 in
10:33 57.6 °F 22.9 °F 29.92 in West 9.0 mph 21.0 mph 26 % 0.00 in
10:38 57.7 °F 23.0 °F 29.92 in WNW 7.0 mph 16.0 mph 26 % 0.00 in
10:40 57.7 °F 22.1 °F 29.92 in West 11.3 mph 20.7 mph 25 % 0.00 in
10:45 57.7 °F 21.1 °F 29.92 in WNW 10.3 mph 19.6 mph 24 % 0.00 in
10:50 57.7 °F 21.1 °F 29.92 in NW 7.8 mph 12.0 mph 24 % 0.00 in
10:55 57.8 °F 22.2 °F 29.92 in West 5.9 mph 16.1 mph 25 % 0.00 in
11:00 58.0 °F 22.3 °F 29.91 in WSW 8.7 mph 13.0 mph 25 % 0.00 in
11:05 58.0 °F 22.3 °F 29.92 in WNW 10.1 mph 17.3 mph 25 % 0.00 in
11:10 58.0 °F 22.3 °F 29.92 in NNW 6.8 mph 12.7 mph 25 % 0.00 in
11:15 58.2 °F 22.5 °F 29.91 in WNW 7.1 mph 11.5 mph 25 % 0.00 in
11:20 58.3 °F 23.5 °F 29.92 in WSW 7.6 mph 12.0 mph 26 % 0.00 in
11:25 58.4 °F 21.7 °F 29.92 in WNW 8.5 mph 15.0 mph 24 % 0.00 in
11:30 58.4 °F 21.7 °F 29.93 in SW 10.0 mph 23.0 mph 24 % 0.00 in
11:36 58.4 °F 22.7 °F 29.92 in West 5.2 mph 12.7 mph 25 % 0.00 in
11:41 58.6 °F 23.8 °F 29.92 in West 6.7 mph 15.0 mph 26 % 0.00 in
11:46 58.7 °F 23.9 °F 29.92 in West 7.2 mph 10.0 mph 26 % 0.00 in
11:51 58.6 °F 25.6 °F 29.91 in NW 3.7 mph 10.4 mph 28 % 0.00 in
11:56 58.5 °F 27.9 °F 29.91 in NW 3.7 mph 6.9 mph 31 % 0.00 in
12:01 58.4 °F 27.9 °F 29.92 in NW 3.6 mph 9.2 mph 31 % 0.00 in
12:06 58.4 °F 27.1 °F 29.92 in WNW 5.8 mph 13.8 mph 30 % 0.00 in
12:11 58.0 °F 26.7 °F 29.91 in NNW 3.4 mph 15.0 mph 30 % 0.00 in
12:16 57.7 °F 26.4 °F 29.91 in NW 4.2 mph 10.4 mph 30 % 0.00 in
12:21 57.7 °F 27.2 °F 29.91 in NW 6.4 mph 12.7 mph 31 % 0.00 in
12:26 57.6 °F 28.7 °F 29.91 in WNW 7.0 mph 9.2 mph 33 % 0.00 in
12:31 57.4 °F 28.5 °F 29.90 in NNW 4.3 mph 6.9 mph 33 % 0.00 in
12:36 57.5 °F 29.3 °F 29.90 in NW 4.9 mph 11.5 mph 34 % 0.00 in
12:41 57.6 °F 29.4 °F 29.89 in WNW 3.5 mph 11.5 mph 34 % 0.00 in
12:46 57.8 °F 28.1 °F 29.90 in WNW 7.1 mph 10.4 mph 32 % 0.00 in
12:51 58.0 °F 27.5 °F 29.89 in WNW 4.7 mph 11.5 mph 31 % 0.00 in
12:56 57.9 °F 28.2 °F 29.89 in NNW 3.5 mph 13.8 mph 32 % 0.00 in
13:01 58.1 °F 29.8 °F 29.89 in WNW 2.7 mph 9.0 mph 34 % 0.00 in
13:06 58.2 °F 27.7 °F 29.89 in NW 5.7 mph 9.2 mph 31 % 0.00 in
13:11 58.4 °F 27.9 °F 29.89 in WNW 4.5 mph 10.4 mph 31 % 0.00 in
13:16 58.6 °F 25.6 °F 29.88 in WNW 3.9 mph 11.5 mph 28 % 0.00 in
13:21 59.1 °F 28.5 °F 29.88 in NW 5.4 mph 11.0 mph 31 % 0.00 in
13:27 59.0 °F 27.6 °F 29.88 in NW 7.1 mph 10.0 mph 30 % 0.00 in
13:32 58.8 °F 28.2 °F 29.89 in NW 5.1 mph 6.9 mph 31 % 0.00 in
13:33 58.7 °F 28.1 °F 29.90 in NNW 5.4 mph 10.4 mph 31 % 0.00 in
13:34 58.7 °F 28.1 °F 29.90 in WNW 5.8 mph 10.4 mph 31 % 0.00 in
13:35 58.7 °F 27.3 °F 29.89 in NNW 4.7 mph 10.4 mph 30 % 0.00 in
13:38 58.7 °F 27.3 °F 29.89 in WNW 5.7 mph 8.1 mph 30 % 0.00 in
13:39 58.7 °F 26.5 °F 29.89 in NW 6.8 mph 11.5 mph 29 % 0.00 in
13:40 58.7 °F 27.3 °F 29.89 in WNW 4.8 mph 8.1 mph 30 % 0.00 in
13:42 58.7 °F 28.1 °F 29.89 in West 5.6 mph 9.2 mph 31 % 0.00 in
13:45 58.8 °F 29.0 °F 29.89 in NW 4.3 mph 8.1 mph 32 % 0.00 in
13:50 58.8 °F 27.4 °F 29.89 in WNW 4.6 mph 11.5 mph 30 % 0.00 in
13:55 58.8 °F 27.4 °F 29.89 in NNW 8.9 mph 17.3 mph 30 % 0.00 in
14:00 58.4 °F 27.9 °F 29.89 in NNW 6.5 mph 10.4 mph 31 % 0.00 in
14:05 57.9 °F 28.2 °F 29.89 in NW 6.5 mph 10.4 mph 32 % 0.00 in
14:10 57.6 °F 30.1 °F 29.88 in WNW 3.0 mph 8.1 mph 35 % 0.00 in
14:15 57.5 °F 29.3 °F 29.88 in NNW 4.2 mph 10.4 mph 34 % 0.00 in
14:20 57.5 °F 30.0 °F 29.88 in NW 2.5 mph 4.6 mph 35 % 0.00 in
14:25 57.7 °F 26.4 °F 29.88 in WNW 6.5 mph 11.0 mph 30 % 0.00 in
14:31 57.9 °F 27.4 °F 29.89 in NW 6.9 mph 9.2 mph 31 % 0.00 in
14:36 58.0 °F 28.3 °F 29.89 in NW 4.5 mph 8.1 mph 32 % 0.00 in
14:41 58.0 °F 29.0 °F 29.88 in WNW 3.8 mph 11.5 mph 33 % 0.00 in
14:46 57.7 °F 29.5 °F 29.88 in NW 5.7 mph 9.2 mph 34 % 0.00 in
14:51 57.3 °F 28.4 °F 29.88 in NW 5.3 mph 15.0 mph 33 % 0.00 in
14:56 56.9 °F 28.1 °F 29.88 in NW 6.8 mph 12.7 mph 33 % 0.00 in
15:01 56.6 °F 28.5 °F 29.88 in WNW 3.8 mph 5.8 mph 34 % 0.00 in
15:06 56.3 °F 29.0 °F 29.88 in NW 5.6 mph 10.4 mph 35 % 0.00 in
15:11 56.0 °F 29.4 °F 29.88 in WNW 7.8 mph 13.0 mph 36 % 0.00 in
15:16 55.7 °F 27.7 °F 29.88 in WNW 4.4 mph 8.1 mph 34 % 0.00 in
15:21 55.6 °F 29.7 °F 29.88 in WNW 4.4 mph 11.0 mph 37 % 0.00 in
15:26 55.3 °F 30.1 °F 29.88 in WNW 2.8 mph 5.8 mph 38 % 0.00 in
15:31 55.0 °F 29.8 °F 29.88 in North 3.9 mph 9.2 mph 38 % 0.00 in
15:37 54.6 °F 30.1 °F 29.89 in NNW 2.5 mph 8.1 mph 39 % 0.00 in
15:41 54.5 °F 30.0 °F 29.89 in NW 4.9 mph 8.1 mph 39 % 0.00 in
15:46 54.3 °F 29.8 °F 29.89 in NNW 3.9 mph 7.0 mph 39 % 0.00 in
15:51 54.1 °F 29.0 °F 29.88 in NNW 3.1 mph 8.1 mph 38 % 0.00 in
15:56 54.0 °F 29.6 °F 29.88 in WNW 4.7 mph 9.0 mph 39 % 0.00 in
16:01 53.9 °F 29.5 °F 29.88 in NW 3.3 mph 6.9 mph 39 % 0.00 in
16:06 53.8 °F 29.4 °F 29.88 in NW 3.3 mph 7.0 mph 39 % 0.00 in
16:11 53.7 °F 29.3 °F 29.88 in NNW 4.1 mph 8.1 mph 39 % 0.00 in
16:16 53.5 °F 29.7 °F 29.88 in West 1.5 mph 5.8 mph 40 % 0.00 in
16:21 53.3 °F 30.2 °F 29.88 in West 4.9 mph 8.0 mph 41 % 0.00 in
16:26 53.1 °F 29.4 °F 29.88 in NW 2.9 mph 4.0 mph 40 % 0.00 in
16:32 53.0 °F 29.9 °F 29.88 in NW 2.9 mph 5.8 mph 41 % 0.00 in
16:37 52.8 °F 29.1 °F 29.88 in WNW 4.3 mph 6.9 mph 40 % 0.00 in
16:42 52.7 °F 29.6 °F 29.88 in NW 1.5 mph 4.0 mph 41 % 0.00 in
16:47 52.7 °F 29.6 °F 29.89 in WNW 4.1 mph 9.2 mph 41 % 0.00 in
16:52 52.6 °F 30.1 °F 29.89 in NW 2.7 mph 3.5 mph 42 % 0.00 in
16:57 52.4 °F 30.5 °F 29.89 in NW 3.3 mph 9.2 mph 43 % 0.00 in
17:02 52.2 °F 31.5 °F 29.89 in NW 1.7 mph 4.6 mph 45 % 0.00 in
17:07 51.9 °F 30.6 °F 29.89 in NNW 1.9 mph 5.0 mph 44 % 0.00 in
17:12 51.7 °F 30.5 °F 29.89 in WNW 3.8 mph 6.9 mph 44 % 0.00 in
17:17 51.4 °F 30.7 °F 29.90 in WNW 2.0 mph 3.5 mph 45 % 0.00 in
17:22 51.2 °F 31.1 °F 29.90 in NW 2.5 mph 11.5 mph 46 % 0.00 in
17:27 51.0 °F 30.9 °F 29.90 in NW 4.9 mph 8.1 mph 46 % 0.00 in
17:33 50.7 °F 30.7 °F 29.91 in WNW 7.1 mph 11.5 mph 46 % 0.00 in
17:38 50.5 °F 31.0 °F 29.91 in NW 2.4 mph 8.1 mph 47 % 0.00 in
17:43 50.4 °F 31.4 °F 29.91 in WNW 5.6 mph 9.2 mph 48 % 0.00 in
17:48 50.2 °F 30.7 °F 29.92 in WNW 5.0 mph 9.2 mph 47 % 0.00 in
17:53 50.1 °F 31.2 °F 29.92 in NW 3.0 mph 9.0 mph 48 % 0.00 in
17:58 50.1 °F 30.1 °F 29.92 in NW 3.5 mph 8.1 mph 46 % 0.00 in
18:03 50.1 °F 29.6 °F 29.92 in WNW 5.2 mph 9.2 mph 45 % 0.00 in
18:08 50.1 °F 29.6 °F 29.93 in WNW 2.6 mph 6.0 mph 45 % 0.00 in
18:13 50.1 °F 29.6 °F 29.92 in NW 3.6 mph 5.8 mph 45 % 0.00 in
18:18 50.1 °F 29.0 °F 29.92 in WNW 0.3 mph 4.6 mph 44 % 0.00 in
18:23 50.1 °F 29.0 °F 29.92 in WNW 2.2 mph 6.0 mph 44 % 0.00 in
18:28 50.0 °F 28.4 °F 29.92 in West 2.8 mph 6.9 mph 43 % 0.00 in
18:33 49.9 °F 28.8 °F 29.93 in WNW 2.3 mph 5.8 mph 44 % 0.00 in
18:38 49.9 °F 28.8 °F 29.93 in WNW 2.1 mph 4.0 mph 44 % 0.00 in
18:44 49.7 °F 28.6 °F 29.93 in West 2.5 mph 9.2 mph 44 % 0.00 in
18:49 49.7 °F 28.6 °F 29.93 in NW 3.5 mph 4.6 mph 44 % 0.00 in
18:54 49.6 °F 29.1 °F 29.94 in NW 3.1 mph 5.0 mph 45 % 0.00 in
18:59 49.6 °F 29.6 °F 29.94 in WNW 3.1 mph 7.0 mph 46 % 0.00 in
19:04 49.5 °F 29.6 °F 29.94 in West 3.4 mph 8.1 mph 46 % 0.00 in
19:09 49.4 °F 29.5 °F 29.94 in WNW 1.6 mph 6.0 mph 46 % 0.00 in
19:14 49.2 °F 28.2 °F 29.95 in NW 3.5 mph 8.1 mph 44 % 0.00 in
19:19 49.3 °F 28.3 °F 29.95 in West 5.2 mph 11.5 mph 44 % 0.00 in
19:24 49.4 °F 27.8 °F 29.95 in West 3.0 mph 8.1 mph 43 % 0.00 in
19:29 49.4 °F 27.8 °F 29.95 in WNW 3.0 mph 7.0 mph 43 % 0.00 in
19:34 49.5 °F 27.9 °F 29.95 in West 3.7 mph 6.9 mph 43 % 0.00 in
19:39 49.5 °F 27.3 °F 29.95 in WNW 3.0 mph 4.0 mph 42 % 0.00 in
19:45 49.6 °F 28.0 °F 29.96 in West 2.2 mph 5.0 mph 43 % 0.00 in
19:50 49.6 °F 28.0 °F 29.95 in NW 2.9 mph 5.8 mph 43 % 0.00 in
19:55 49.6 °F 28.0 °F 29.96 in WNW 1.0 mph 3.5 mph 43 % 0.00 in
20:00 49.6 °F 28.6 °F 29.95 in WNW 2.8 mph 4.6 mph 44 % 0.00 in
20:05 49.5 °F 29.0 °F 29.96 in WNW 2.8 mph 4.6 mph 45 % 0.00 in
20:10 49.4 °F 28.4 °F 29.96 in NW 1.7 mph 5.0 mph 44 % 0.00 in
20:15 49.3 °F 28.3 °F 29.96 in WNW 5.1 mph 8.0 mph 44 % 0.00 in
20:20 49.3 °F 28.3 °F 29.96 in NW 1.6 mph 8.1 mph 44 % 0.00 in
20:25 49.2 °F 28.2 °F 29.95 in NNW 1.0 mph 4.6 mph 44 % 0.00 in
20:30 49.2 °F 28.7 °F 29.95 in WNW 3.7 mph 7.0 mph 45 % 0.00 in
20:35 49.1 °F 29.7 °F 29.95 in NNW 3.5 mph 8.1 mph 47 % 0.00 in
20:40 49.0 °F 30.1 °F 29.95 in NNW 3.2 mph 7.0 mph 48 % 0.00 in
20:45 48.8 °F 30.0 °F 29.95 in NW 4.9 mph 8.1 mph 48 % 0.00 in
20:50 48.7 °F 29.4 °F 29.96 in WNW 3.9 mph 7.0 mph 47 % 0.00 in
20:55 48.6 °F 29.8 °F 29.96 in NW 3.9 mph 8.1 mph 48 % 0.00 in
21:01 48.5 °F 30.2 °F 29.96 in NW 2.8 mph 6.0 mph 49 % 0.00 in
21:06 48.5 °F 30.7 °F 29.96 in NW 3.3 mph 5.8 mph 50 % 0.00 in
21:11 48.3 °F 30.0 °F 29.96 in NW 5.5 mph 6.9 mph 49 % 0.00 in
21:16 48.2 °F 29.4 °F 29.96 in NW 7.0 mph 9.2 mph 48 % 0.00 in
21:21 48.2 °F 29.4 °F 29.96 in NNW 3.6 mph 8.1 mph 48 % 0.00 in
21:26 48.2 °F 28.9 °F 29.95 in WNW 6.8 mph 11.5 mph 47 % 0.00 in
21:31 48.3 °F 29.0 °F 29.96 in West 6.4 mph 11.5 mph 47 % 0.00 in
21:36 48.3 °F 29.0 °F 29.96 in NW 3.5 mph 5.0 mph 47 % 0.00 in
21:41 48.3 °F 28.5 °F 29.95 in NW 1.8 mph 4.0 mph 46 % 0.00 in
21:46 48.3 °F 27.4 °F 29.97 in NW 4.8 mph 10.4 mph 44 % 0.00 in
21:51 48.3 °F 27.4 °F 29.95 in WNW 3.4 mph 9.2 mph 44 % 0.00 in
21:56 48.4 °F 27.5 °F 29.95 in NNW 5.8 mph 10.4 mph 44 % 0.00 in
22:02 48.4 °F 29.1 °F 29.94 in WNW 3.5 mph 8.1 mph 47 % 0.00 in
22:07 48.3 °F 29.0 °F 29.96 in NW 4.6 mph 9.2 mph 47 % 0.00 in
22:12 48.2 °F 28.9 °F 29.95 in WNW 3.2 mph 5.8 mph 47 % 0.00 in
22:17 48.1 °F 28.8 °F 29.95 in NW 3.1 mph 7.0 mph 47 % 0.00 in
22:22 47.9 °F 28.6 °F 29.96 in NNW 5.4 mph 10.4 mph 47 % 0.00 in
22:27 47.9 °F 29.1 °F 29.95 in NNW 2.2 mph 7.0 mph 48 % 0.00 in
22:32 47.8 °F 29.5 °F 29.95 in WNW 4.0 mph 9.2 mph 49 % 0.00 in
22:37 47.6 °F 29.9 °F 29.94 in WNW 2.1 mph 5.8 mph 50 % 0.00 in
22:42 47.5 °F 29.8 °F 29.95 in NNW 1.7 mph 4.0 mph 50 % 0.00 in
22:47 47.3 °F 28.6 °F 29.95 in West 0.4 mph 2.3 mph 48 % 0.00 in
22:52 47.2 °F 28.5 °F 29.96 in Calm     48 % 0.00 in
22:57 47.2 °F 29.0 °F 29.96 in West 0.1 mph 3.5 mph 49 % 0.00 in
23:03 47.1 °F 28.9 °F 29.96 in Calm     49 % 0.00 in
23:08 47.1 °F 28.9 °F 29.97 in West 1.4 mph 2.3 mph 49 % 0.00 in
23:13 46.9 °F 28.7 °F 29.96 in West 0.1 mph   49 % 0.00 in
23:18 46.8 °F 27.6 °F 29.96 in West 0.8 mph 2.3 mph 47 % 0.00 in
23:23 46.7 °F 27.5 °F 29.96 in WNW 0.2 mph 2.3 mph 47 % 0.00 in
23:28 46.6 °F 27.4 °F 29.97 in WNW 1.0 mph 2.0 mph 47 % 0.00 in
23:33 46.5 °F 26.8 °F 29.96 in Calm   3.0 mph 46 % 0.00 in
23:38 46.4 °F 26.7 °F 29.96 in WNW 1.0 mph 4.0 mph 46 % 0.00 in
23:43 46.3 °F 25.6 °F 29.95 in NW 5.0 mph 7.0 mph 44 % 0.00 in
23:48 46.4 °F 25.6 °F 29.95 in NW 2.0 mph 7.0 mph 44 % 0.00 in
23:53 46.4 °F 25.6 °F 29.95 in NNW 3.0 mph 7.0 mph 44 % 0.00 in
23:58 46.5 °F 25.7 °F 29.95 in WNW 3.6 mph 5.0 mph 44 % 0.00 in
Crab Meadow Weather
Compliments of Weather Underground - 3 mb

Script developed by  Jim McMurry - jmcmurry@mwt.net Adapted for the template by  Wim van der Kuil - Leuven-Template.eu

Recycling: Recycling 1 aluminum can saves enough energy to run your TV for 3 hours. Recycling aluminum cans saves 95% of the energy used to make cans from virgin ore.